Time;durP1;ratioP1;P1;durP2;ratioP2;P2;SDS_P1;SDS_P2;PMS_P1;PMS_P2;Temp;Humidity;BMP_temperature;BMP_pressure;BME280_temperature;BME280_humidity;BME280_pressure;Samples;Min_cycle;Max_cycle;Signal;HPM_P1;HPM_P2
2021/04/26 00:00:30;;;;;;;6.87;6.10;;;6.00;99.90;;;;;;5062484;28;20195;-78
2021/04/26 00:02:58;;;;;;;6.90;6.30;;;5.90;99.90;;;;;;5064453;28;20691;-79
2021/04/26 00:05:25;;;;;;;6.77;6.17;;;5.90;99.90;;;;;;5065792;28;20280;-78
2021/04/26 00:07:51;;;;;;;7.63;6.50;;;5.90;99.90;;;;;;5061908;28;20249;-77
2021/04/26 00:10:18;;;;;;;8.30;6.43;;;5.90;99.90;;;;;;5069146;28;20209;-79
2021/04/26 00:12:46;;;;;;;7.20;6.60;;;5.80;99.90;;;;;;5062387;28;20202;-79
2021/04/26 00:15:17;;;;;;;6.80;6.20;;;5.80;99.90;;;;;;5067946;28;20222;-79
2021/04/26 00:17:43;;;;;;;6.97;6.37;;;5.80;99.90;;;;;;5066655;28;20206;-79
2021/04/26 00:20:11;;;;;;;6.83;6.30;;;5.80;99.90;;;;;;5057877;28;20195;-79
2021/04/26 00:22:38;;;;;;;8.17;6.20;;;5.80;99.90;;;;;;5061636;28;20471;-79
2021/04/26 00:25:06;;;;;;;7.27;6.57;;;5.80;99.90;;;;;;5062313;28;20216;-78
2021/04/26 00:27:33;;;;;;;7.67;6.70;;;5.70;99.90;;;;;;5069934;28;20206;-79
2021/04/26 00:30:01;;;;;;;6.90;6.30;;;5.70;99.90;;;;;;5063413;28;20433;-79
2021/04/26 00:32:27;;;;;;;7.10;6.27;;;5.70;99.90;;;;;;5065061;28;20257;-78
2021/04/26 00:34:53;;;;;;;6.93;6.40;;;5.70;99.90;;;;;;5066439;28;20465;-78
2021/04/26 00:37:20;;;;;;;7.00;6.40;;;5.60;99.90;;;;;;5064567;28;20513;-78
2021/04/26 00:39:46;;;;;;;6.50;6.00;;;5.50;99.90;;;;;;5060666;28;20218;-78
2021/04/26 00:42:12;;;;;;;6.77;6.17;;;5.50;99.90;;;;;;5065285;28;20214;-79
2021/04/26 00:44:39;;;;;;;7.87;6.33;;;5.50;99.90;;;;;;5064685;28;20480;-79
2021/04/26 00:47:06;;;;;;;7.47;6.77;;;5.50;99.90;;;;;;5058314;28;20426;-79
2021/04/26 00:49:32;;;;;;;7.93;6.60;;;5.40;99.90;;;;;;5064751;28;20191;-78
2021/04/26 00:51:59;;;;;;;8.10;6.73;;;5.50;99.90;;;;;;5069681;28;20456;-78
2021/04/26 00:54:25;;;;;;;7.23;6.63;;;5.40;99.90;;;;;;5065273;28;20224;-78
2021/04/26 00:56:52;;;;;;;8.30;6.70;;;5.40;99.90;;;;;;5063062;28;20442;-79
2021/04/26 00:59:19;;;;;;;7.17;6.40;;;5.40;99.90;;;;;;5063572;28;20504;-79
2021/04/26 01:01:46;;;;;;;7.40;6.10;;;5.30;99.90;;;;;;5065597;28;20496;-79
2021/04/26 01:04:13;;;;;;;7.00;6.20;;;5.30;99.90;;;;;;5064283;28;20469;-79
2021/04/26 01:06:41;;;;;;;6.43;5.93;;;5.30;99.90;;;;;;5065079;28;20460;-78
2021/04/26 01:09:07;;;;;;;6.30;5.80;;;5.30;99.90;;;;;;5064865;28;20880;-78
2021/04/26 01:11:55;;;;;;;6.20;5.60;;;5.20;99.90;;;;;;5068646;28;20639;-79
2021/04/26 01:14:31;;;;;;;6.37;5.87;;;5.20;99.90;;;;;;5064294;28;20555;-79
2021/04/26 01:17:05;;;;;;;5.97;5.47;;;5.30;99.90;;;;;;5065057;28;20520;-77
2021/04/26 01:20:06;;;;;;;6.40;5.80;;;5.20;99.90;;;;;;5072263;28;20472;-78
2021/04/26 01:23:02;;;;;;;6.27;5.70;;;5.30;99.90;;;;;;5017383;28;20579;-79
2021/04/26 01:25:29;;;;;;;6.57;5.97;;;5.20;99.90;;;;;;5056250;28;20311;-79
2021/04/26 01:28:15;;;;;;;6.50;5.90;;;5.10;99.90;;;;;;5057377;28;20652;-78
2021/04/26 01:30:48;;;;;;;9.93;6.10;;;5.00;99.90;;;;;;5064650;28;20639;-78
2021/04/26 01:33:20;;;;;;;6.23;5.67;;;5.00;99.90;;;;;;5065861;28;20448;-79
2021/04/26 01:36:10;;;;;;;7.60;5.80;;;5.00;99.90;;;;;;5060421;28;20506;-79
2021/04/26 01:38:46;;;;;;;6.93;6.23;;;4.90;99.90;;;;;;5067698;28;20495;-79
2021/04/26 01:41:12;;;;;;;6.30;5.80;;;4.90;99.90;;;;;;5063967;28;20452;-79
2021/04/26 01:43:41;;;;;;;7.20;6.03;;;4.90;99.90;;;;;;5061773;28;20309;-77
2021/04/26 01:46:11;;;;;;;7.47;6.10;;;4.80;99.90;;;;;;5066408;28;20440;-79
2021/04/26 01:48:41;;;;;;;6.57;5.70;;;4.90;99.90;;;;;;5064343;28;20437;-79
2021/04/26 01:51:09;;;;;;;8.17;6.03;;;4.90;99.90;;;;;;5064197;28;20484;-77
2021/04/26 01:53:38;;;;;;;8.23;6.40;;;4.80;99.90;;;;;;5064471;28;20492;-79
2021/04/26 01:56:09;;;;;;;6.93;6.33;;;4.80;99.90;;;;;;5052533;28;20807;-79
2021/04/26 01:58:45;;;;;;;6.80;6.20;;;4.80;99.90;;;;;;5067561;28;20521;-79
2021/04/26 02:01:15;;;;;;;6.50;5.90;;;4.70;99.90;;;;;;5063915;28;20925;-79
2021/04/26 02:03:47;;;;;;;6.80;6.10;;;4.80;99.90;;;;;;5063384;28;20456;-78
2021/04/26 02:06:34;;;;;;;6.73;6.10;;;4.80;99.90;;;;;;5064334;28;20493;-79
2021/04/26 02:09:20;;;;;;;6.40;5.90;;;4.80;99.90;;;;;;5058370;28;20417;-79
2021/04/26 02:11:52;;;;;;;7.80;6.67;;;4.70;99.90;;;;;;5065112;28;20507;-78
2021/04/26 02:14:23;;;;;;;6.90;6.30;;;4.80;99.90;;;;;;5057876;28;20473;-78
2021/04/26 02:16:50;;;;;;;7.30;6.60;;;4.70;99.90;;;;;;5064534;28;20455;-78
2021/04/26 02:19:17;;;;;;;6.97;6.20;;;4.70;99.90;;;;;;5061092;28;20495;-78
2021/04/26 02:21:44;;;;;;;6.80;6.20;;;4.70;99.90;;;;;;5062492;28;20531;-79
2021/04/26 02:24:11;;;;;;;6.43;5.87;;;4.60;99.90;;;;;;5067023;28;20466;-79
2021/04/26 02:26:38;;;;;;;7.10;6.50;;;4.50;99.90;;;;;;5063465;28;20441;-79
2021/04/26 02:29:04;;;;;;;6.43;5.80;;;4.50;99.90;;;;;;5061301;28;20452;-78
2021/04/26 02:31:35;;;;;;;9.57;6.73;;;4.60;99.90;;;;;;5064878;28;20456;-79
2021/04/26 02:34:10;;;;;;;6.53;5.93;;;4.60;99.90;;;;;;5060137;28;20491;-79
2021/04/26 02:36:51;;;;;;;7.40;6.70;;;4.50;99.90;;;;;;5063280;28;20442;-79
2021/04/26 02:39:18;;;;;;;6.83;6.23;;;4.60;99.90;;;;;;5067685;28;20476;-80
2021/04/26 02:41:47;;;;;;;7.00;6.30;;;4.50;99.90;;;;;;5055885;28;20454;-80
2021/04/26 02:44:22;;;;;;;9.13;6.77;;;4.50;99.90;;;;;;5060101;28;20549;-80
2021/04/26 02:46:57;;;;;;;7.13;6.53;;;4.40;99.90;;;;;;5065607;28;20446;-78
2021/04/26 02:49:26;;;;;;;8.00;7.37;;;4.50;99.90;;;;;;5064223;28;20471;-80
2021/04/26 02:51:55;;;;;;;7.87;7.07;;;4.50;99.90;;;;;;5064380;28;20859;-77
2021/04/26 02:54:27;;;;;;;6.53;5.97;;;4.50;99.90;;;;;;5092327;22;20683;-75
2021/04/26 02:56:57;;;;;;;7.27;6.57;;;4.40;99.90;;;;;;5042490;28;20507;-77
2021/04/26 02:59:27;;;;;;;7.57;6.67;;;4.40;99.90;;;;;;5039263;28;20473;-75
2021/04/26 03:01:58;;;;;;;7.50;6.80;;;4.40;99.90;;;;;;5037491;28;20447;-76
2021/04/26 03:04:51;;;;;;;7.20;6.60;;;4.30;99.90;;;;;;5035810;28;20508;-77
2021/04/26 03:07:18;;;;;;;7.63;6.93;;;4.30;99.90;;;;;;5022474;28;20454;-76
2021/04/26 03:09:55;;;;;;;6.87;6.27;;;4.30;99.90;;;;;;5025240;28;20437;-76
2021/04/26 03:12:25;;;;;;;7.00;6.47;;;4.30;99.90;;;;;;5034918;28;20449;-76
2021/04/26 03:14:52;;;;;;;8.20;7.37;;;4.30;99.90;;;;;;5035399;28;20468;-77
2021/04/26 03:17:19;;;;;;;9.43;6.77;;;4.30;99.90;;;;;;5035222;28;20866;-76
2021/04/26 03:19:59;;;;;;;7.30;6.70;;;4.20;99.90;;;;;;5041623;28;20484;-76
2021/04/26 03:22:28;;;;;;;7.70;6.93;;;4.20;99.90;;;;;;5044695;28;20456;-76
2021/04/26 03:24:54;;;;;;;7.77;7.07;;;4.20;99.90;;;;;;5043293;28;20511;-78
2021/04/26 03:27:23;;;;;;;8.53;7.63;;;4.10;99.90;;;;;;5046544;28;20450;-78
2021/04/26 03:29:52;;;;;;;8.20;7.40;;;4.10;99.90;;;;;;5042556;28;20453;-78
2021/04/26 03:32:23;;;;;;;8.17;7.47;;;4.10;99.90;;;;;;5043298;28;20957;-78
2021/04/26 03:34:59;;;;;;;8.30;7.50;;;4.10;99.90;;;;;;5058465;28;20555;-78
2021/04/26 03:37:28;;;;;;;8.20;7.40;;;4.10;99.90;;;;;;5038868;28;20454;-78
2021/04/26 03:39:55;;;;;;;8.70;7.90;;;4.10;99.90;;;;;;5043098;28;20724;-77
2021/04/26 03:42:26;;;;;;;8.20;7.50;;;4.10;99.90;;;;;;5041915;28;20447;-80
2021/04/26 03:44:54;;;;;;;9.43;8.50;;;4.10;99.90;;;;;;5047589;28;20484;-78
2021/04/26 03:47:39;;;;;;;8.50;7.70;;;4.10;99.90;;;;;;5048599;28;20449;-78
2021/04/26 03:50:09;;;;;;;9.40;7.80;;;4.10;99.90;;;;;;5062299;28;20488;-78
2021/04/26 03:53:08;;;;;;;8.90;8.07;;;4.10;99.90;;;;;;5066691;28;20490;-78
2021/04/26 03:55:57;;;;;;;8.60;7.77;;;4.00;99.90;;;;;;5046619;28;20560;-78
2021/04/26 03:58:26;;;;;;;8.70;7.90;;;4.00;99.90;;;;;;5049515;28;20479;-78
2021/04/26 04:00:53;;;;;;;10.30;8.40;;;4.00;99.90;;;;;;5046917;28;20438;-78
2021/04/26 04:03:19;;;;;;;8.13;7.37;;;4.00;99.90;;;;;;5051122;28;20454;-78
2021/04/26 04:05:48;;;;;;;10.27;8.40;;;4.00;99.90;;;;;;5044422;28;20474;-78
2021/04/26 04:08:34;;;;;;;9.93;8.13;;;4.00;99.90;;;;;;5065692;28;20444;-79
2021/04/26 04:11:19;;;;;;;13.07;8.53;;;3.90;99.90;;;;;;5058348;28;20427;-79
2021/04/26 04:14:17;;;;;;;8.47;7.20;;;3.90;99.90;;;;;;5038589;28;20469;-78
2021/04/26 04:16:47;;;;;;;8.20;7.50;;;3.90;99.90;;;;;;5049692;28;20479;-78
2021/04/26 04:19:14;;;;;;;8.93;8.10;;;3.90;99.90;;;;;;5062591;28;20852;-78
2021/04/26 04:21:40;;;;;;;8.40;7.70;;;3.90;99.90;;;;;;5068849;28;20439;-78
2021/04/26 04:24:11;;;;;;;11.07;8.77;;;3.90;99.90;;;;;;5046987;28;20472;-79
2021/04/26 04:26:38;;;;;;;9.00;8.10;;;3.90;99.90;;;;;;5051126;28;20447;-78
2021/04/26 04:29:07;;;;;;;8.97;8.10;;;3.90;99.90;;;;;;5040958;28;20856;-78
2021/04/26 04:31:53;;;;;;;8.87;8.10;;;3.90;99.90;;;;;;5069187;28;20475;-78
2021/04/26 04:34:42;;;;;;;9.40;8.40;;;3.90;99.90;;;;;;5058462;28;20465;-78
2021/04/26 04:37:29;;;;;;;9.17;8.33;;;3.90;99.90;;;;;;5066257;28;20454;-79
2021/04/26 04:40:15;;;;;;;13.30;9.30;;;3.90;99.90;;;;;;5066516;28;20538;-78
2021/04/26 04:43:11;;;;;;;8.87;7.83;;;3.90;99.90;;;;;;5045694;28;20471;-77
2021/04/26 04:45:50;;;;;;;9.13;8.23;;;3.80;99.90;;;;;;5052413;28;20479;-78
2021/04/26 04:48:32;;;;;;;11.40;7.97;;;3.90;99.90;;;;;;5061819;28;20941;-77
2021/04/26 04:50:59;;;;;;;9.60;8.67;;;3.90;99.90;;;;;;5046514;28;20535;-78
2021/04/26 04:53:26;;;;;;;8.87;7.97;;;3.90;99.90;;;;;;5065281;28;20527;-78
2021/04/26 04:55:53;;;;;;;8.60;7.80;;;4.00;99.90;;;;;;5045815;28;20905;-77
2021/04/26 04:58:26;;;;;;;10.20;9.23;;;4.20;99.90;;;;;;5048271;28;20523;-77
2021/04/26 05:00:53;;;;;;;10.63;9.63;;;4.30;99.90;;;;;;5045521;28;20446;-77
2021/04/26 05:03:37;;;;;;;10.30;9.30;;;4.40;99.90;;;;;;5065501;28;20555;-77
2021/04/26 05:06:22;;;;;;;9.87;8.70;;;4.80;99.90;;;;;;5054461;28;20487;-75
2021/04/26 05:09:08;;;;;;;10.03;9.13;;;5.50;99.90;;;;;;5057899;28;20916;-77
2021/04/26 05:11:53;;;;;;;9.90;8.97;;;6.10;99.90;;;;;;5063782;28;20456;-80
2021/04/26 05:14:39;;;;;;;11.20;9.40;;;6.60;99.90;;;;;;5050897;28;20241;-78
2021/04/26 05:17:05;;;;;;;8.53;7.67;;;6.90;99.90;;;;;;5056998;28;20192;-78
2021/04/26 05:19:32;;;;;;;8.93;7.60;;;7.30;99.90;;;;;;5061407;28;20211;-78
2021/04/26 05:22:00;;;;;;;9.50;7.53;;;7.70;99.90;;;;;;5056360;28;21373;-78
2021/04/26 05:24:26;;;;;;;8.80;7.40;;;8.10;99.90;;;;;;5043385;28;20572;-77
2021/04/26 05:26:54;;;;;;;8.40;7.00;;;8.50;99.90;;;;;;5050935;28;20199;-78
2021/04/26 05:29:21;;;;;;;7.17;6.30;;;8.90;99.90;;;;;;5043334;28;20205;-78
2021/04/26 05:31:47;;;;;;;8.27;6.87;;;9.20;99.90;;;;;;5050653;28;20201;-77
2021/04/26 05:34:14;;;;;;;7.57;6.77;;;9.00;99.90;;;;;;5040021;28;20691;-78
2021/04/26 05:36:45;;;;;;;8.30;6.70;;;9.00;99.90;;;;;;5045165;28;20325;-78
2021/04/26 05:39:12;;;;;;;9.27;6.53;;;9.00;99.90;;;;;;5046624;28;20225;-78
2021/04/26 05:41:39;;;;;;;7.93;6.37;;;9.00;99.90;;;;;;5041796;28;20742;-78
2021/04/26 05:44:08;;;;;;;6.40;5.73;;;9.00;99.90;;;;;;5046618;28;20321;-78
2021/04/26 05:46:43;;;;;;;6.80;6.10;;;9.00;99.90;;;;;;5047458;28;20726;-78
2021/04/26 05:49:09;;;;;;;8.47;6.80;;;8.90;99.90;;;;;;5065405;28;20191;-78
2021/04/26 05:51:36;;;;;;;7.20;6.37;;;8.90;99.90;;;;;;5063101;28;20190;-78
2021/04/26 05:54:02;;;;;;;8.43;7.13;;;8.90;99.90;;;;;;5046437;28;20271;-78
2021/04/26 05:56:29;;;;;;;8.63;7.60;;;8.60;99.90;;;;;;5064608;28;20194;-78
2021/04/26 05:58:55;;;;;;;7.93;7.13;;;8.40;99.90;;;;;;5042926;28;20215;-78
2021/04/26 06:01:22;;;;;;;7.73;6.93;;;8.40;99.90;;;;;;5060668;28;20567;-77
2021/04/26 06:03:49;;;;;;;9.47;7.37;;;8.30;99.90;;;;;;5045331;28;20258;-79
2021/04/26 06:06:15;;;;;;;9.03;7.23;;;8.10;99.90;;;;;;5046299;28;20198;-78
2021/04/26 06:08:41;;;;;;;8.50;6.97;;;8.00;99.90;;;;;;5062214;28;20194;-78
2021/04/26 06:11:08;;;;;;;8.33;7.10;;;8.20;99.90;;;;;;5046083;28;20205;-78
2021/04/26 06:13:36;;;;;;;10.83;7.60;;;8.30;99.90;;;;;;5063410;28;20201;-78
2021/04/26 06:16:03;;;;;;;9.13;6.90;;;8.40;99.90;;;;;;5045368;28;20197;-78
2021/04/26 06:18:30;;;;;;;7.40;6.50;;;8.60;99.90;;;;;;5045809;28;20275;-79
2021/04/26 06:20:57;;;;;;;9.90;7.00;;;8.80;99.90;;;;;;5044272;28;20199;-78
2021/04/26 06:23:23;;;;;;;7.60;6.80;;;8.90;99.90;;;;;;5041084;28;20198;-80
2021/04/26 06:25:49;;;;;;;9.57;7.67;;;9.00;99.90;;;;;;5062165;28;20218;-78
2021/04/26 06:28:16;;;;;;;8.33;6.57;;;9.10;99.90;;;;;;5054495;28;20195;-79
2021/04/26 06:30:45;;;;;;;8.97;7.17;;;9.10;99.90;;;;;;5042003;28;20237;-78
2021/04/26 06:33:15;;;;;;;7.73;6.97;;;9.30;99.90;;;;;;5042187;28;20290;-78
2021/04/26 06:35:43;;;;;;;9.20;8.40;;;9.20;99.90;;;;;;5043666;28;20326;-78
2021/04/26 06:38:09;;;;;;;9.20;8.40;;;9.50;99.90;;;;;;5061905;28;20202;-79
2021/04/26 06:40:36;;;;;;;8.57;7.63;;;9.50;99.90;;;;;;5059837;28;20218;-78
2021/04/26 06:43:02;;;;;;;9.27;7.70;;;9.50;99.90;;;;;;5050091;28;20198;-79
2021/04/26 06:45:29;;;;;;;8.33;7.03;;;9.80;99.90;;;;;;5029710;28;20231;-79
2021/04/26 06:47:56;;;;;;;7.97;7.23;;;10.00;99.90;;;;;;5044980;28;20200;-78
2021/04/26 06:50:24;;;;;;;7.87;6.43;;;10.00;99.90;;;;;;5022918;28;20199;-79
2021/04/26 06:52:54;;;;;;;7.90;6.90;;;10.00;99.90;;;;;;5026297;28;20195;-78
2021/04/26 06:55:20;;;;;;;8.00;7.20;;;10.30;99.90;;;;;;5024637;28;20297;-78
2021/04/26 06:57:47;;;;;;;7.80;6.93;;;10.30;99.90;;;;;;5042728;28;20624;-79
2021/04/26 07:00:14;;;;;;;9.63;8.03;;;10.30;99.90;;;;;;5039314;28;20687;-78
2021/04/26 07:02:41;;;;;;;7.60;6.80;;;10.30;99.90;;;;;;5055729;28;20265;-78
2021/04/26 07:05:08;;;;;;;8.50;7.20;;;10.50;99.90;;;;;;5039393;28;20790;-78
2021/04/26 07:07:35;;;;;;;8.47;7.67;;;10.60;99.40;;;;;;5034939;28;20203;-78
2021/04/26 07:10:03;;;;;;;8.03;7.23;;;10.70;99.90;;;;;;5050774;28;20655;-78
2021/04/26 07:12:29;;;;;;;8.90;7.40;;;10.90;99.90;;;;;;5044274;28;20196;-78
2021/04/26 07:14:55;;;;;;;8.80;7.73;;;11.10;99.60;;;;;;5047348;28;20250;-77
2021/04/26 07:17:23;;;;;;;8.90;8.00;;;11.10;98.60;;;;;;5029341;28;20211;-78
2021/04/26 07:19:49;;;;;;;8.30;7.60;;;11.10;99.10;;;;;;5029301;28;20224;-78
2021/04/26 07:22:16;;;;;;;13.10;8.43;;;11.40;98.90;;;;;;5049172;28;20200;-78
2021/04/26 07:24:43;;;;;;;8.57;7.80;;;11.50;96.40;;;;;;5044803;28;20216;-78
2021/04/26 07:27:10;;;;;;;9.17;8.23;;;12.00;96.30;;;;;;5048589;28;20199;-80
2021/04/26 07:29:36;;;;;;;9.03;8.13;;;12.20;95.70;;;;;;5047315;28;20207;-78
2021/04/26 07:32:03;;;;;;;8.67;7.50;;;11.90;95.80;;;;;;5043136;28;20206;-78
2021/04/26 07:34:30;;;;;;;8.90;8.10;;;12.30;95.20;;;;;;5062213;28;20222;-78
2021/04/26 07:36:59;;;;;;;8.90;8.00;;;12.80;95.10;;;;;;5065939;28;20197;-79
2021/04/26 07:39:25;;;;;;;10.60;8.70;;;13.10;95.30;;;;;;5066787;28;20278;-79
2021/04/26 07:41:52;;;;;;;8.87;8.07;;;13.40;93.50;;;;;;5062869;28;20209;-78
2021/04/26 07:44:20;;;;;;;8.83;7.53;;;13.20;94.10;;;;;;5035578;28;20272;-79
2021/04/26 07:46:46;;;;;;;8.73;7.83;;;13.60;94.30;;;;;;5043801;28;20272;-79
2021/04/26 07:49:13;;;;;;;10.70;7.73;;;14.00;94.80;;;;;;5058640;28;20607;-79
2021/04/26 07:51:39;;;;;;;9.63;8.63;;;14.50;93.70;;;;;;5059419;28;20195;-78
2021/04/26 07:54:06;;;;;;;9.20;8.30;;;14.50;91.90;;;;;;5043495;28;20226;-78
2021/04/26 07:56:32;;;;;;;9.40;8.40;;;14.50;92.40;;;;;;5059637;28;20195;-79
2021/04/26 07:58:59;;;;;;;9.40;8.50;;;14.40;91.60;;;;;;5043988;28;20416;-79
2021/04/26 08:01:26;;;;;;;8.80;7.90;;;14.60;92.30;;;;;;5051632;28;20194;-80
2021/04/26 08:03:52;;;;;;;8.47;7.67;;;14.50;91.30;;;;;;5064755;28;20202;-77
2021/04/26 08:06:18;;;;;;;9.00;8.10;;;14.70;91.00;;;;;;5045115;28;20199;-78
2021/04/26 08:08:45;;;;;;;7.90;7.10;;;14.40;90.90;;;;;;5070169;28;20585;-79
2021/04/26 08:11:11;;;;;;;8.90;7.40;;;14.60;91.70;;;;;;5048676;28;20655;-78
2021/04/26 08:13:37;;;;;;;8.80;7.63;;;14.70;91.40;;;;;;5046712;28;20210;-81
2021/04/26 08:16:04;;;;;;;8.03;7.23;;;14.60;91.40;;;;;;5046356;28;20206;-81
2021/04/26 08:18:31;;;;;;;11.77;8.53;;;15.00;91.40;;;;;;5047306;28;20191;-80
2021/04/26 08:20:58;;;;;;;9.80;8.33;;;14.70;90.10;;;;;;5044521;28;20202;-81
2021/04/26 08:23:25;;;;;;;8.93;7.90;;;15.10;91.70;;;;;;5049165;28;20713;-81
2021/04/26 08:25:51;;;;;;;8.67;7.87;;;15.00;90.40;;;;;;5063674;28;20237;-81
2021/04/26 08:28:19;;;;;;;9.40;8.10;;;15.00;90.40;;;;;;5066858;28;20191;-81
2021/04/26 08:30:45;;;;;;;8.60;7.73;;;15.20;90.10;;;;;;5064995;28;20284;-81
2021/04/26 08:33:12;;;;;;;8.70;7.90;;;15.50;91.30;;;;;;5044759;28;20580;-80
2021/04/26 08:35:39;;;;;;;8.97;8.13;;;15.90;88.80;;;;;;5069403;28;20224;-81
2021/04/26 08:38:06;;;;;;;10.60;9.70;;;16.10;90.40;;;;;;5059419;28;20192;-81
2021/04/26 08:40:33;;;;;;;9.00;8.10;;;15.90;88.80;;;;;;5069477;28;20224;-81
2021/04/26 08:43:02;;;;;;;8.37;7.57;;;15.80;88.50;;;;;;5045704;28;20207;-80
2021/04/26 08:45:29;;;;;;;8.17;6.20;;;16.00;89.70;;;;;;5057324;28;20305;-81
2021/04/26 08:47:56;;;;;;;8.60;6.13;;;16.30;88.90;;;;;;5058316;28;20191;-81
2021/04/26 08:50:24;;;;;;;8.00;6.30;;;15.90;89.60;;;;;;5071095;28;20191;-81
2021/04/26 08:52:52;;;;;;;6.60;5.90;;;15.80;88.40;;;;;;5075728;28;20222;-80
2021/04/26 08:55:18;;;;;;;10.37;8.57;;;15.20;88.70;;;;;;5068046;28;20752;-79
2021/04/26 08:57:45;;;;;;;10.47;9.37;;;15.30;89.00;;;;;;5054087;28;20200;-81
2021/04/26 09:00:13;;;;;;;11.10;9.20;;;15.30;89.80;;;;;;5057914;28;20642;-81
2021/04/26 09:02:44;;;;;;;11.43;8.50;;;15.40;89.20;;;;;;5050900;28;20219;-81
2021/04/26 09:05:21;;;;;;;9.93;8.93;;;16.00;90.40;;;;;;5060662;28;20211;-81
2021/04/26 09:07:51;;;;;;;9.33;8.53;;;16.30;88.50;;;;;;5051821;28;20258;-81
2021/04/26 09:10:33;;;;;;;11.93;9.73;;;16.60;88.20;;;;;;5072731;28;20200;-81
2021/04/26 09:13:22;;;;;;;8.90;8.03;;;16.00;87.10;;;;;;5051167;28;20199;-82
2021/04/26 09:15:52;;;;;;;9.03;8.13;;;16.50;89.80;;;;;;5048431;28;20221;-81
2021/04/26 09:18:19;;;;;;;9.63;8.67;;;17.00;88.80;;;;;;5047371;28;20205;-81
2021/04/26 09:20:45;;;;;;;10.50;9.07;;;17.10;86.40;;;;;;5047825;28;20226;-81
2021/04/26 09:23:15;;;;;;;9.93;8.87;;;17.30;86.50;;;;;;5051824;28;20683;-80
2021/04/26 09:25:42;;;;;;;9.57;8.67;;;17.10;85.50;;;;;;5066334;28;20210;-81
2021/04/26 09:28:11;;;;;;;9.17;8.37;;;17.30;85.60;;;;;;5050312;28;20275;-79
2021/04/26 09:30:49;;;;;;;12.20;9.70;;;17.40;87.40;;;;;;5067826;28;20274;-81
2021/04/26 09:33:34;;;;;;;9.70;8.80;;;17.30;87.00;;;;;;5057597;28;20203;-81
2021/04/26 09:36:11;;;;;;;9.83;8.93;;;17.10;86.40;;;;;;5060459;28;20220;-82
2021/04/26 09:38:39;;;;;;;10.33;9.23;;;17.20;85.60;;;;;;5039783;28;20206;-81
2021/04/26 09:41:14;;;;;;;9.43;8.53;;;16.90;86.70;;;;;;5056215;28;20196;-79
2021/04/26 09:43:42;;;;;;;11.10;9.10;;;16.90;86.10;;;;;;5051292;28;20348;-81
2021/04/26 09:46:09;;;;;;;8.50;7.70;;;17.20;86.10;;;;;;5049909;28;20212;-81
2021/04/26 09:48:36;;;;;;;10.10;8.73;;;17.60;86.10;;;;;;5071457;28;20203;-79
2021/04/26 09:51:06;;;;;;;11.57;9.20;;;17.60;86.00;;;;;;5063279;28;20195;-79
2021/04/26 09:53:35;;;;;;;10.47;8.77;;;17.70;83.60;;;;;;5045256;28;20204;-79
2021/04/26 09:56:14;;;;;;;9.73;8.37;;;17.80;86.00;;;;;;5069578;28;20510;-78
2021/04/26 09:58:41;;;;;;;11.33;8.70;;;17.90;83.00;;;;;;5042237;28;20700;-78
2021/04/26 10:01:07;;;;;;;10.40;7.97;;;17.80;83.10;;;;;;5069722;28;20193;-78
2021/04/26 10:03:34;;;;;;;11.77;9.27;;;18.10;85.30;;;;;;5061815;28;20452;-78
2021/04/26 10:06:01;;;;;;;9.27;8.43;;;17.90;81.00;;;;;;5069958;28;20717;-78
2021/04/26 10:08:27;;;;;;;8.17;7.37;;;17.30;83.10;;;;;;5043550;28;20192;-79
2021/04/26 10:10:54;;;;;;;8.90;8.10;;;17.30;84.30;;;;;;5063548;28;20279;-79
2021/04/26 10:13:22;;;;;;;9.03;8.23;;;17.40;83.90;;;;;;5064816;28;20201;-78
2021/04/26 10:15:55;;;;;;;8.93;7.90;;;17.50;84.40;;;;;;5039274;28;20219;-78
2021/04/26 10:18:27;;;;;;;9.50;8.67;;;17.60;83.40;;;;;;5052830;28;20199;-79
2021/04/26 10:20:53;;;;;;;8.40;7.47;;;17.40;83.20;;;;;;5045286;28;20224;-79
2021/04/26 10:23:41;;;;;;;9.93;8.30;;;17.40;85.00;;;;;;5066985;28;20207;-79
2021/04/26 10:26:08;;;;;;;8.87;8.03;;;17.30;84.00;;;;;;5048593;28;20202;-79
2021/04/26 10:28:36;;;;;;;8.50;7.70;;;17.60;81.70;;;;;;5045630;28;20249;-79
2021/04/26 10:31:07;;;;;;;8.70;7.90;;;17.40;80.10;;;;;;5043484;28;20513;-79
2021/04/26 10:34:05;;;;;;;10.17;8.73;;;17.20;80.20;;;;;;5054550;28;20270;-79
2021/04/26 10:36:45;;;;;;;9.30;8.40;;;17.10;80.60;;;;;;5032438;28;20752;-79
2021/04/26 10:39:14;;;;;;;11.07;8.17;;;17.20;82.40;;;;;;5038173;28;20219;-79
2021/04/26 10:42:11;;;;;;;9.73;8.07;;;17.30;81.70;;;;;;5039136;28;20201;-78
2021/04/26 10:44:54;;;;;;;8.83;7.93;;;16.90;81.20;;;;;;5028402;28;20398;-79
2021/04/26 10:47:26;;;;;;;9.23;8.33;;;16.70;82.70;;;;;;5036792;28;20224;-79
2021/04/26 10:50:15;;;;;;;9.27;8.37;;;16.50;82.10;;;;;;5041464;28;20191;-79
2021/04/26 10:52:43;;;;;;;9.67;8.67;;;16.40;83.10;;;;;;5019706;28;20212;-79
2021/04/26 10:55:11;;;;;;;9.10;8.20;;;16.60;81.90;;;;;;5033241;28;20650;-79
2021/04/26 10:57:40;;;;;;;12.33;8.47;;;16.40;82.60;;;;;;5022997;28;20207;-79
2021/04/26 11:00:43;;;;;;;12.27;8.50;;;16.20;82.90;;;;;;5043366;28;20276;-78
2021/04/26 11:03:38;;;;;;;11.63;8.03;;;16.20;81.50;;;;;;5035517;28;20245;-78
2021/04/26 11:06:30;;;;;;;8.07;7.27;;;16.20;81.10;;;;;;5032295;28;20611;-79
2021/04/26 11:09:16;;;;;;;8.43;7.53;;;16.10;81.30;;;;;;5054958;28;20197;-78
2021/04/26 11:12:05;;;;;;;8.67;7.47;;;16.00;80.50;;;;;;5033706;28;20198;-78
2021/04/26 11:14:32;;;;;;;7.60;6.90;;;16.00;79.40;;;;;;5043119;28;20320;-78
2021/04/26 11:17:06;;;;;;;8.80;7.90;;;16.00;82.40;;;;;;5060414;28;20199;-78
2021/04/26 11:19:54;;;;;;;8.63;7.73;;;15.90;79.20;;;;;;5052487;28;20643;-78
2021/04/26 11:22:33;;;;;;;9.23;7.57;;;15.80;82.30;;;;;;5038357;28;20204;-78
2021/04/26 11:25:04;;;;;;;5.43;4.53;;;15.70;80.40;;;;;;5042224;28;20257;-79
2021/04/26 11:27:32;;;;;;;8.97;5.63;;;15.80;83.70;;;;;;5037002;28;20203;-78
2021/04/26 11:30:31;;;;;;;8.07;5.87;;;15.80;79.00;;;;;;5024164;28;20209;-77
2021/04/26 11:33:15;;;;;;;7.37;5.77;;;15.50;79.90;;;;;;4961521;28;20194;-78
2021/04/26 11:36:11;;;;;;;10.00;6.07;;;15.70;81.40;;;;;;5014911;28;20724;-78
2021/04/26 11:38:39;;;;;;;7.97;5.90;;;15.70;80.60;;;;;;5023108;28;20234;-78
2021/04/26 11:41:06;;;;;;;6.63;5.10;;;15.50;80.90;;;;;;5020598;28;20692;-78
2021/04/26 11:43:33;;;;;;;8.60;5.70;;;15.70;79.90;;;;;;5038153;28;20204;-78
2021/04/26 11:46:00;;;;;;;7.10;5.50;;;15.70;79.90;;;;;;5024163;28;20368;-78
2021/04/26 11:48:28;;;;;;;5.90;4.83;;;15.70;79.70;;;;;;5038022;28;20275;-78
2021/04/26 11:50:57;;;;;;;6.03;5.40;;;15.70;79.50;;;;;;5042686;28;20203;-78
2021/04/26 11:53:33;;;;;;;6.03;5.20;;;15.70;79.80;;;;;;5064717;28;20195;-77
2021/04/26 11:56:13;;;;;;;6.43;5.43;;;15.60;80.90;;;;;;5044375;28;20229;-78
2021/04/26 11:58:40;;;;;;;8.07;4.97;;;15.80;79.40;;;;;;5042597;28;20206;-78
2021/04/26 12:01:08;;;;;;;6.17;5.30;;;15.90;80.50;;;;;;5046153;28;20644;-78
2021/04/26 12:03:54;;;;;;;6.40;5.00;;;16.10;82.30;;;;;;5065641;28;20202;-78
2021/04/26 12:06:21;;;;;;;9.40;5.23;;;16.10;80.50;;;;;;5059299;28;20194;-78
2021/04/26 12:08:48;;;;;;;7.67;6.10;;;16.00;79.70;;;;;;5066416;28;20199;-78
2021/04/26 12:11:16;;;;;;;8.83;4.90;;;16.00;78.90;;;;;;5066221;28;20199;-78
2021/04/26 12:13:42;;;;;;;10.00;5.90;;;15.90;81.70;;;;;;5047254;28;20206;-78
2021/04/26 12:16:08;;;;;;;5.73;5.03;;;15.80;79.20;;;;;;5047041;28;20186;-78
2021/04/26 12:18:35;;;;;;;8.53;5.40;;;15.90;80.40;;;;;;5040622;28;20218;-78
2021/04/26 12:21:02;;;;;;;8.03;5.80;;;15.90;79.70;;;;;;5038280;28;20764;-78
2021/04/26 12:23:29;;;;;;;7.43;5.93;;;15.70;80.10;;;;;;5061726;28;20339;-77
2021/04/26 12:25:55;;;;;;;9.37;5.33;;;15.70;80.00;;;;;;5046259;28;20540;-76
2021/04/26 12:28:23;;;;;;;5.97;5.03;;;15.70;79.90;;;;;;5044392;28;20198;-80
2021/04/26 12:30:51;;;;;;;6.27;5.30;;;15.70;80.50;;;;;;5047753;28;20445;-80
2021/04/26 12:33:22;;;;;;;8.07;6.00;;;15.90;80.30;;;;;;5040774;28;20600;-79
2021/04/26 12:35:49;;;;;;;7.23;5.40;;;15.90;79.20;;;;;;5068787;28;20674;-80
2021/04/26 12:38:16;;;;;;;6.57;5.20;;;16.00;81.20;;;;;;5044655;28;20199;-81
2021/04/26 12:40:42;;;;;;;10.27;5.47;;;15.90;79.50;;;;;;5052999;28;20594;-80
2021/04/26 12:43:11;;;;;;;9.27;5.53;;;15.80;79.50;;;;;;5044398;28;20203;-80
2021/04/26 12:45:39;;;;;;;7.33;5.87;;;15.90;81.00;;;;;;5062025;28;20223;-80
2021/04/26 12:48:09;;;;;;;5.60;4.80;;;15.80;80.00;;;;;;5047613;28;20219;-80
2021/04/26 12:50:37;;;;;;;8.50;5.63;;;15.90;82.30;;;;;;5062025;28;20199;-80
2021/04/26 12:53:09;;;;;;;6.27;5.30;;;16.10;79.50;;;;;;5051139;28;20200;-81
2021/04/26 12:55:38;;;;;;;8.77;5.60;;;16.00;79.50;;;;;;5034410;28;20620;-76
2021/04/26 12:58:10;;;;;;;8.47;5.27;;;15.90;79.20;;;;;;5054729;28;20187;-81
2021/04/26 13:00:39;;;;;;;8.50;5.87;;;15.80;79.40;;;;;;5043940;28;20223;-77
2021/04/26 13:03:33;;;;;;;13.77;5.97;;;15.90;78.10;;;;;;5049832;28;20244;-86
2021/04/26 13:06:06;;;;;;;7.77;5.03;;;16.00;79.20;;;;;;5064813;28;20221;-76
2021/04/26 13:08:34;;;;;;;7.63;5.53;;;16.00;78.90;;;;;;5064707;28;20224;-76
2021/04/26 13:11:03;;;;;;;5.17;4.67;;;16.00;78.10;;;;;;5060619;28;20194;-78